Weather at Mohammed V International Airport

Public forecast

Using degrees Celsius for public forecast. Weather courtesy of forecast.io.

Current aviation weather report (METAR) for Mohammed V International Airport

Retrieved 2021/10/27 06:30 UTC (0 seconds ago):

GMMN 270630Z 23004KT 200V260 0700 R35R/0600N FG OVC001 15/15 Q1016 NOSIG

Aviation forecast (TAF) for Mohammed V International Airport

Retrieved 2021/10/27 06:45 UTC (0 seconds ago):

TAF TAF GMMN 270500Z 2706/2812 20004KT 0600 FG OVC001 BECMG 2709/2713 28012KT CAVOK BECMG 2718/2722 18004KT SCT004 TEMPO 2800/2809 0400 FG OVC001 BECMG 2809/2812 CAVOK